Nevada City, California
Current Conditions -  °F | °C
As of 5:20 AM on Sunday 23 Nov 2014 (Local Time) from KGOO Reporting Station
Clear Clear  
Wind Chill: 36°   Ceiling: Unl
Heat Index: 39°   Visibility: 10mi
Dew Point: 30°   Wind: 5mph
Humidity: 70%   Direction: 350°N
Pressure: 30.25"   Gusts: NA
Location:  39.26°N, 121.02°W
Report Text: KGOO 231320Z AUTO 35004KT 10SM CLR 04/M01 A3025 RMK AO1
Loading
Personal Weather Stations






























Interactive Weather Map New forecast layout! Learn more

10-Day Weather Forecast

Advertisements
Track Severe Weather on mobile